sensor_id;sensor_type;location;lat;lon;timestamp;temperature;humidity
18388;DHT22;9320;50.256;19.026;2022-11-23T00:01:12;4.00;99.90
18388;DHT22;9320;50.256;19.026;2022-11-23T00:03:41;4.10;99.90
18388;DHT22;9320;50.256;19.026;2022-11-23T00:06:09;4.00;99.90
18388;DHT22;9320;50.256;19.026;2022-11-23T00:08:37;3.90;99.90
18388;DHT22;9320;50.256;19.026;2022-11-23T00:11:05;3.90;99.90
18388;DHT22;9320;50.256;19.026;2022-11-23T00:13:34;4.00;99.90
18388;DHT22;9320;50.256;19.026;2022-11-23T00:16:05;3.80;99.90
18388;DHT22;9320;50.256;19.026;2022-11-23T00:18:34;3.90;99.90
18388;DHT22;9320;50.256;19.026;2022-11-23T00:21:05;4.10;99.90
18388;DHT22;9320;50.256;19.026;2022-11-23T00:23:34;3.80;99.90
18388;DHT22;9320;50.256;19.026;2022-11-23T00:26:03;3.80;99.90
18388;DHT22;9320;50.256;19.026;2022-11-23T00:28:31;3.90;99.90
18388;DHT22;9320;50.256;19.026;2022-11-23T00:31:00;3.90;99.90
18388;DHT22;9320;50.256;19.026;2022-11-23T00:33:30;4.00;99.90
18388;DHT22;9320;50.256;19.026;2022-11-23T00:35:58;4.10;99.90
18388;DHT22;9320;50.256;19.026;2022-11-23T00:38:27;4.10;99.90
18388;DHT22;9320;50.256;19.026;2022-11-23T00:40:59;4.20;99.90
18388;DHT22;9320;50.256;19.026;2022-11-23T00:43:28;3.90;99.90
18388;DHT22;9320;50.256;19.026;2022-11-23T00:46:06;3.90;99.90
18388;DHT22;9320;50.256;19.026;2022-11-23T00:48:36;3.60;99.90
18388;DHT22;9320;50.256;19.026;2022-11-23T00:51:06;3.50;99.90
18388;DHT22;9320;50.256;19.026;2022-11-23T00:53:35;3.70;99.90
18388;DHT22;9320;50.256;19.026;2022-11-23T00:56:04;3.50;99.90
18388;DHT22;9320;50.256;19.026;2022-11-23T00:58:32;3.60;99.90
18388;DHT22;9320;50.256;19.026;2022-11-23T01:01:02;3.60;99.90
18388;DHT22;9320;50.256;19.026;2022-11-23T01:03:30;3.70;99.90
18388;DHT22;9320;50.256;19.026;2022-11-23T01:06:07;3.80;99.90
18388;DHT22;9320;50.256;19.026;2022-11-23T01:08:36;3.60;99.90
18388;DHT22;9320;50.256;19.026;2022-11-23T01:11:06;3.70;99.90
18388;DHT22;9320;50.256;19.026;2022-11-23T01:13:35;3.10;99.90
18388;DHT22;9320;50.256;19.026;2022-11-23T01:16:03;3.90;99.90
18388;DHT22;9320;50.256;19.026;2022-11-23T01:18:31;3.70;99.90
18388;DHT22;9320;50.256;19.026;2022-11-23T01:21:00;3.70;99.90
18388;DHT22;9320;50.256;19.026;2022-11-23T01:23:30;3.60;99.90
18388;DHT22;9320;50.256;19.026;2022-11-23T01:26:03;3.50;99.90
18388;DHT22;9320;50.256;19.026;2022-11-23T01:28:32;3.50;99.90
18388;DHT22;9320;50.256;19.026;2022-11-23T01:31:05;3.40;99.90
18388;DHT22;9320;50.256;19.026;2022-11-23T01:33:35;3.40;99.90
18388;DHT22;9320;50.256;19.026;2022-11-23T01:36:08;3.20;99.90
18388;DHT22;9320;50.256;19.026;2022-11-23T01:38:38;3.40;99.90
18388;DHT22;9320;50.256;19.026;2022-11-23T01:41:07;3.30;99.90
18388;DHT22;9320;50.256;19.026;2022-11-23T01:43:36;3.20;99.90
18388;DHT22;9320;50.256;19.026;2022-11-23T01:46:05;3.20;99.90
18388;DHT22;9320;50.256;19.026;2022-11-23T01:48:37;3.00;99.90
18388;DHT22;9320;50.256;19.026;2022-11-23T01:51:09;3.10;99.90
18388;DHT22;9320;50.256;19.026;2022-11-23T01:53:40;3.40;99.90
18388;DHT22;9320;50.256;19.026;2022-11-23T01:56:11;3.20;99.90
18388;DHT22;9320;50.256;19.026;2022-11-23T01:58:43;3.10;99.90
18388;DHT22;9320;50.256;19.026;2022-11-23T02:01:13;2.90;99.90
18388;DHT22;9320;50.256;19.026;2022-11-23T02:03:42;3.20;99.90
18388;DHT22;9320;50.256;19.026;2022-11-23T02:06:14;3.20;99.90
18388;DHT22;9320;50.256;19.026;2022-11-23T02:08:45;3.30;99.90
18388;DHT22;9320;50.256;19.026;2022-11-23T02:11:15;3.10;99.90
18388;DHT22;9320;50.256;19.026;2022-11-23T02:13:45;3.40;99.90
18388;DHT22;9320;50.256;19.026;2022-11-23T02:16:14;3.30;99.90
18388;DHT22;9320;50.256;19.026;2022-11-23T02:18:45;3.30;99.90
18388;DHT22;9320;50.256;19.026;2022-11-23T02:21:14;3.00;99.90
18388;DHT22;9320;50.256;19.026;2022-11-23T02:23:49;3.10;99.90
18388;DHT22;9320;50.256;19.026;2022-11-23T02:26:22;3.20;99.90
18388;DHT22;9320;50.256;19.026;2022-11-23T02:28:53;3.10;99.90
18388;DHT22;9320;50.256;19.026;2022-11-23T02:31:24;3.10;99.90
18388;DHT22;9320;50.256;19.026;2022-11-23T02:33:52;3.20;99.90
18388;DHT22;9320;50.256;19.026;2022-11-23T02:36:36;3.20;99.90
18388;DHT22;9320;50.256;19.026;2022-11-23T02:39:07;3.10;99.90
18388;DHT22;9320;50.256;19.026;2022-11-23T02:41:39;3.10;99.90
18388;DHT22;9320;50.256;19.026;2022-11-23T02:44:17;3.10;99.90
18388;DHT22;9320;50.256;19.026;2022-11-23T02:46:46;2.80;99.90
18388;DHT22;9320;50.256;19.026;2022-11-23T02:49:14;2.90;99.90
18388;DHT22;9320;50.256;19.026;2022-11-23T02:51:42;2.90;99.90
18388;DHT22;9320;50.256;19.026;2022-11-23T02:54:10;3.10;99.90
18388;DHT22;9320;50.256;19.026;2022-11-23T02:56:39;3.20;99.90
18388;DHT22;9320;50.256;19.026;2022-11-23T02:59:07;3.20;99.90
18388;DHT22;9320;50.256;19.026;2022-11-23T03:01:35;3.10;99.90
18388;DHT22;9320;50.256;19.026;2022-11-23T03:04:05;3.30;99.90
18388;DHT22;9320;50.256;19.026;2022-11-23T03:06:33;3.40;99.90
18388;DHT22;9320;50.256;19.026;2022-11-23T03:09:01;3.30;99.90
18388;DHT22;9320;50.256;19.026;2022-11-23T03:11:29;3.00;99.90
18388;DHT22;9320;50.256;19.026;2022-11-23T03:13:59;2.90;99.90
18388;DHT22;9320;50.256;19.026;2022-11-23T03:16:27;2.80;99.90
18388;DHT22;9320;50.256;19.026;2022-11-23T03:18:55;2.90;99.90
18388;DHT22;9320;50.256;19.026;2022-11-23T03:21:23;2.90;99.90
18388;DHT22;9320;50.256;19.026;2022-11-23T03:23:51;3.10;99.90
18388;DHT22;9320;50.256;19.026;2022-11-23T03:26:19;3.10;99.90
18388;DHT22;9320;50.256;19.026;2022-11-23T03:28:47;2.90;99.90
18388;DHT22;9320;50.256;19.026;2022-11-23T03:31:16;3.00;99.90
18388;DHT22;9320;50.256;19.026;2022-11-23T03:33:44;3.00;99.90
18388;DHT22;9320;50.256;19.026;2022-11-23T03:36:12;2.90;99.90
18388;DHT22;9320;50.256;19.026;2022-11-23T03:38:40;3.00;99.90
18388;DHT22;9320;50.256;19.026;2022-11-23T03:41:08;2.90;99.90
18388;DHT22;9320;50.256;19.026;2022-11-23T03:43:36;2.90;99.90
18388;DHT22;9320;50.256;19.026;2022-11-23T03:46:04;3.10;99.90
18388;DHT22;9320;50.256;19.026;2022-11-23T03:48:34;2.80;99.90
18388;DHT22;9320;50.256;19.026;2022-11-23T03:51:01;2.70;99.90
18388;DHT22;9320;50.256;19.026;2022-11-23T03:53:29;2.80;99.90
18388;DHT22;9320;50.256;19.026;2022-11-23T03:55:57;2.70;99.90
18388;DHT22;9320;50.256;19.026;2022-11-23T03:58:25;2.80;99.90
18388;DHT22;9320;50.256;19.026;2022-11-23T04:00:54;3.00;99.90
18388;DHT22;9320;50.256;19.026;2022-11-23T04:03:22;3.10;99.90
18388;DHT22;9320;50.256;19.026;2022-11-23T04:05:51;3.00;99.90
18388;DHT22;9320;50.256;19.026;2022-11-23T04:08:19;3.00;99.90
18388;DHT22;9320;50.256;19.026;2022-11-23T04:10:47;3.10;99.90
18388;DHT22;9320;50.256;19.026;2022-11-23T04:13:15;3.10;99.90
18388;DHT22;9320;50.256;19.026;2022-11-23T04:15:43;3.10;99.90
18388;DHT22;9320;50.256;19.026;2022-11-23T04:18:11;3.10;99.90
18388;DHT22;9320;50.256;19.026;2022-11-23T04:20:39;3.20;99.90
18388;DHT22;9320;50.256;19.026;2022-11-23T04:23:08;3.10;99.90
18388;DHT22;9320;50.256;19.026;2022-11-23T04:25:39;3.20;99.90
18388;DHT22;9320;50.256;19.026;2022-11-23T04:28:07;3.20;99.90
18388;DHT22;9320;50.256;19.026;2022-11-23T04:30:35;3.30;99.90
18388;DHT22;9320;50.256;19.026;2022-11-23T04:33:03;3.30;99.90
18388;DHT22;9320;50.256;19.026;2022-11-23T04:35:31;3.40;99.90
18388;DHT22;9320;50.256;19.026;2022-11-23T04:38:00;3.40;99.90
18388;DHT22;9320;50.256;19.026;2022-11-23T04:40:29;3.30;99.90
18388;DHT22;9320;50.256;19.026;2022-11-23T04:42:58;3.50;99.90
18388;DHT22;9320;50.256;19.026;2022-11-23T04:45:27;3.60;99.90
18388;DHT22;9320;50.256;19.026;2022-11-23T04:47:55;3.60;99.90
18388;DHT22;9320;50.256;19.026;2022-11-23T04:50:23;3.70;99.90
18388;DHT22;9320;50.256;19.026;2022-11-23T04:52:51;3.40;99.90
18388;DHT22;9320;50.256;19.026;2022-11-23T04:55:19;3.30;99.90
18388;DHT22;9320;50.256;19.026;2022-11-23T04:57:48;3.40;99.90
18388;DHT22;9320;50.256;19.026;2022-11-23T05:00:17;3.60;99.90
18388;DHT22;9320;50.256;19.026;2022-11-23T05:02:45;3.60;99.90
18388;DHT22;9320;50.256;19.026;2022-11-23T05:05:13;3.60;99.90
18388;DHT22;9320;50.256;19.026;2022-11-23T05:07:41;3.60;99.90
18388;DHT22;9320;50.256;19.026;2022-11-23T05:10:09;3.60;99.90
18388;DHT22;9320;50.256;19.026;2022-11-23T05:12:37;3.50;99.90
18388;DHT22;9320;50.256;19.026;2022-11-23T05:15:09;3.50;99.90
18388;DHT22;9320;50.256;19.026;2022-11-23T05:17:38;3.50;99.90
18388;DHT22;9320;50.256;19.026;2022-11-23T05:20:07;3.60;99.90
18388;DHT22;9320;50.256;19.026;2022-11-23T05:22:35;3.60;99.90
18388;DHT22;9320;50.256;19.026;2022-11-23T05:25:04;3.80;99.90
18388;DHT22;9320;50.256;19.026;2022-11-23T05:27:32;3.60;99.90
18388;DHT22;9320;50.256;19.026;2022-11-23T05:30:00;3.40;99.90
18388;DHT22;9320;50.256;19.026;2022-11-23T05:32:30;3.50;99.90
18388;DHT22;9320;50.256;19.026;2022-11-23T05:34:58;3.40;99.90
18388;DHT22;9320;50.256;19.026;2022-11-23T05:37:26;3.30;99.90
18388;DHT22;9320;50.256;19.026;2022-11-23T05:39:54;3.40;99.90
18388;DHT22;9320;50.256;19.026;2022-11-23T05:42:22;3.40;99.90
18388;DHT22;9320;50.256;19.026;2022-11-23T05:44:50;3.40;99.90
18388;DHT22;9320;50.256;19.026;2022-11-23T05:47:18;3.20;99.90
18388;DHT22;9320;50.256;19.026;2022-11-23T05:49:47;3.30;99.90
18388;DHT22;9320;50.256;19.026;2022-11-23T05:52:16;3.30;99.90
18388;DHT22;9320;50.256;19.026;2022-11-23T05:54:44;3.30;99.90
18388;DHT22;9320;50.256;19.026;2022-11-23T05:57:12;3.30;99.90
18388;DHT22;9320;50.256;19.026;2022-11-23T05:59:41;3.40;99.90
18388;DHT22;9320;50.256;19.026;2022-11-23T06:02:09;3.60;99.90
18388;DHT22;9320;50.256;19.026;2022-11-23T06:04:37;3.50;99.90
18388;DHT22;9320;50.256;19.026;2022-11-23T06:07:06;3.40;99.90
18388;DHT22;9320;50.256;19.026;2022-11-23T06:09:34;3.20;99.90
18388;DHT22;9320;50.256;19.026;2022-11-23T06:12:03;3.40;99.90
18388;DHT22;9320;50.256;19.026;2022-11-23T06:14:31;3.50;99.90
18388;DHT22;9320;50.256;19.026;2022-11-23T06:16:59;3.60;99.90
18388;DHT22;9320;50.256;19.026;2022-11-23T06:19:27;3.80;99.90
18388;DHT22;9320;50.256;19.026;2022-11-23T06:21:56;3.80;99.90
18388;DHT22;9320;50.256;19.026;2022-11-23T06:24:25;3.80;99.90
18388;DHT22;9320;50.256;19.026;2022-11-23T06:26:54;3.80;99.90
18388;DHT22;9320;50.256;19.026;2022-11-23T06:29:22;3.80;99.90
18388;DHT22;9320;50.256;19.026;2022-11-23T06:31:50;3.70;99.90
18388;DHT22;9320;50.256;19.026;2022-11-23T06:34:18;3.60;99.90
18388;DHT22;9320;50.256;19.026;2022-11-23T06:36:46;3.70;99.90
18388;DHT22;9320;50.256;19.026;2022-11-23T06:39:14;3.60;99.90
18388;DHT22;9320;50.256;19.026;2022-11-23T06:41:43;3.60;99.90
18388;DHT22;9320;50.256;19.026;2022-11-23T06:44:11;3.70;99.90
18388;DHT22;9320;50.256;19.026;2022-11-23T06:46:39;3.70;99.90
18388;DHT22;9320;50.256;19.026;2022-11-23T06:49:07;3.80;99.90
18388;DHT22;9320;50.256;19.026;2022-11-23T06:51:35;3.70;99.90
18388;DHT22;9320;50.256;19.026;2022-11-23T06:54:03;3.80;99.90
18388;DHT22;9320;50.256;19.026;2022-11-23T06:56:31;4.00;99.90
18388;DHT22;9320;50.256;19.026;2022-11-23T06:59:00;3.60;99.90
18388;DHT22;9320;50.256;19.026;2022-11-23T07:01:29;3.80;99.90
18388;DHT22;9320;50.256;19.026;2022-11-23T07:03:58;4.00;99.90
18388;DHT22;9320;50.256;19.026;2022-11-23T07:06:26;4.10;99.90
18388;DHT22;9320;50.256;19.026;2022-11-23T07:08:56;4.10;99.90
18388;DHT22;9320;50.256;19.026;2022-11-23T07:11:24;4.20;99.90
18388;DHT22;9320;50.256;19.026;2022-11-23T07:13:52;4.10;99.90
18388;DHT22;9320;50.256;19.026;2022-11-23T07:16:22;4.10;99.90
18388;DHT22;9320;50.256;19.026;2022-11-23T07:18:50;3.80;99.90
18388;DHT22;9320;50.256;19.026;2022-11-23T07:21:18;4.00;99.90
18388;DHT22;9320;50.256;19.026;2022-11-23T07:23:46;4.10;99.90
18388;DHT22;9320;50.256;19.026;2022-11-23T07:26:14;4.00;99.90
18388;DHT22;9320;50.256;19.026;2022-11-23T07:28:42;4.00;99.90
18388;DHT22;9320;50.256;19.026;2022-11-23T07:31:10;4.20;99.90
18388;DHT22;9320;50.256;19.026;2022-11-23T07:33:44;4.30;99.90
18388;DHT22;9320;50.256;19.026;2022-11-23T07:36:12;4.50;99.90
18388;DHT22;9320;50.256;19.026;2022-11-23T07:38:40;4.60;99.90
18388;DHT22;9320;50.256;19.026;2022-11-23T07:41:08;4.30;99.90
18388;DHT22;9320;50.256;19.026;2022-11-23T07:43:36;4.40;99.90
18388;DHT22;9320;50.256;19.026;2022-11-23T07:46:05;4.40;99.90
18388;DHT22;9320;50.256;19.026;2022-11-23T07:48:33;4.60;99.90
18388;DHT22;9320;50.256;19.026;2022-11-23T07:51:03;4.70;99.90
18388;DHT22;9320;50.256;19.026;2022-11-23T07:53:32;4.80;99.90
18388;DHT22;9320;50.256;19.026;2022-11-23T07:56:01;4.80;99.90
18388;DHT22;9320;50.256;19.026;2022-11-23T07:58:30;4.80;99.90
18388;DHT22;9320;50.256;19.026;2022-11-23T08:00:59;4.70;99.90
18388;DHT22;9320;50.256;19.026;2022-11-23T08:03:27;4.60;99.90
18388;DHT22;9320;50.256;19.026;2022-11-23T08:05:56;4.70;99.90
18388;DHT22;9320;50.256;19.026;2022-11-23T08:08:25;4.70;99.90
18388;DHT22;9320;50.256;19.026;2022-11-23T08:10:53;4.90;99.90
18388;DHT22;9320;50.256;19.026;2022-11-23T08:13:22;4.70;99.90
18388;DHT22;9320;50.256;19.026;2022-11-23T08:15:50;4.80;99.90
18388;DHT22;9320;50.256;19.026;2022-11-23T08:18:21;5.00;99.90
18388;DHT22;9320;50.256;19.026;2022-11-23T08:20:49;5.10;99.90
18388;DHT22;9320;50.256;19.026;2022-11-23T08:23:18;5.00;99.90
18388;DHT22;9320;50.256;19.026;2022-11-23T08:25:47;4.80;99.90
18388;DHT22;9320;50.256;19.026;2022-11-23T08:28:16;4.80;99.90
18388;DHT22;9320;50.256;19.026;2022-11-23T08:30:44;4.90;99.90
18388;DHT22;9320;50.256;19.026;2022-11-23T08:33:13;5.20;99.90
18388;DHT22;9320;50.256;19.026;2022-11-23T08:35:41;5.10;99.90
18388;DHT22;9320;50.256;19.026;2022-11-23T08:38:11;5.20;99.90
18388;DHT22;9320;50.256;19.026;2022-11-23T08:40:39;5.10;99.90
18388;DHT22;9320;50.256;19.026;2022-11-23T08:43:09;4.90;99.90
18388;DHT22;9320;50.256;19.026;2022-11-23T08:45:37;4.90;99.90
18388;DHT22;9320;50.256;19.026;2022-11-23T08:48:05;4.70;99.90
18388;DHT22;9320;50.256;19.026;2022-11-23T08:50:34;4.60;99.90
18388;DHT22;9320;50.256;19.026;2022-11-23T08:53:02;4.50;99.90
18388;DHT22;9320;50.256;19.026;2022-11-23T08:55:31;4.50;99.90
18388;DHT22;9320;50.256;19.026;2022-11-23T08:57:59;4.30;99.90
18388;DHT22;9320;50.256;19.026;2022-11-23T09:00:29;4.40;99.90
18388;DHT22;9320;50.256;19.026;2022-11-23T09:02:57;4.50;99.90
18388;DHT22;9320;50.256;19.026;2022-11-23T09:05:26;4.50;99.90
18388;DHT22;9320;50.256;19.026;2022-11-23T09:07:55;4.30;99.90
18388;DHT22;9320;50.256;19.026;2022-11-23T09:10:23;4.60;99.90
18388;DHT22;9320;50.256;19.026;2022-11-23T09:12:51;4.60;99.90
18388;DHT22;9320;50.256;19.026;2022-11-23T09:15:20;4.60;99.90
18388;DHT22;9320;50.256;19.026;2022-11-23T09:17:49;4.70;99.90
18388;DHT22;9320;50.256;19.026;2022-11-23T09:20:18;4.40;99.90
18388;DHT22;9320;50.256;19.026;2022-11-23T09:22:50;4.50;99.90
18388;DHT22;9320;50.256;19.026;2022-11-23T09:25:19;4.50;99.90
18388;DHT22;9320;50.256;19.026;2022-11-23T09:27:48;4.50;99.90
18388;DHT22;9320;50.256;19.026;2022-11-23T09:30:17;4.40;99.90
18388;DHT22;9320;50.256;19.026;2022-11-23T09:32:45;4.60;99.90
18388;DHT22;9320;50.256;19.026;2022-11-23T09:35:14;4.70;99.90
18388;DHT22;9320;50.256;19.026;2022-11-23T09:37:42;4.70;99.90
18388;DHT22;9320;50.256;19.026;2022-11-23T09:40:13;4.80;99.90
18388;DHT22;9320;50.256;19.026;2022-11-23T09:43:06;5.00;99.90
18388;DHT22;9320;50.256;19.026;2022-11-23T09:45:40;5.20;99.90
18388;DHT22;9320;50.256;19.026;2022-11-23T09:48:21;5.40;99.90
18388;DHT22;9320;50.256;19.026;2022-11-23T09:50:58;5.40;99.90
18388;DHT22;9320;50.256;19.026;2022-11-23T09:53:31;5.40;99.90
18388;DHT22;9320;50.256;19.026;2022-11-23T09:56:01;5.30;99.90
18388;DHT22;9320;50.256;19.026;2022-11-23T09:58:35;5.50;99.90
18388;DHT22;9320;50.256;19.026;2022-11-23T10:01:06;5.50;99.90
18388;DHT22;9320;50.256;19.026;2022-11-23T10:03:39;5.00;99.90
18388;DHT22;9320;50.256;19.026;2022-11-23T10:06:19;4.90;99.90
18388;DHT22;9320;50.256;19.026;2022-11-23T10:09:01;5.10;99.90
18388;DHT22;9320;50.256;19.026;2022-11-23T10:12:01;5.50;99.90
18388;DHT22;9320;50.256;19.026;2022-11-23T10:14:47;5.30;99.90
18388;DHT22;9320;50.256;19.026;2022-11-23T10:17:28;5.00;99.90
18388;DHT22;9320;50.256;19.026;2022-11-23T10:20:12;5.10;99.90
18388;DHT22;9320;50.256;19.026;2022-11-23T10:22:50;5.20;99.90
18388;DHT22;9320;50.256;19.026;2022-11-23T10:25:21;5.10;99.90
18388;DHT22;9320;50.256;19.026;2022-11-23T10:27:53;5.00;99.90
18388;DHT22;9320;50.256;19.026;2022-11-23T10:30:23;4.60;99.90
18388;DHT22;9320;50.256;19.026;2022-11-23T10:32:55;4.70;99.90
18388;DHT22;9320;50.256;19.026;2022-11-23T10:35:28;4.80;99.90
18388;DHT22;9320;50.256;19.026;2022-11-23T10:38:11;5.00;99.90
18388;DHT22;9320;50.256;19.026;2022-11-23T10:40:54;5.00;99.90
18388;DHT22;9320;50.256;19.026;2022-11-23T10:43:28;5.00;99.90
18388;DHT22;9320;50.256;19.026;2022-11-23T10:46:29;5.10;99.90
18388;DHT22;9320;50.256;19.026;2022-11-23T10:49:16;5.20;99.90
18388;DHT22;9320;50.256;19.026;2022-11-23T10:51:53;5.40;99.90
18388;DHT22;9320;50.256;19.026;2022-11-23T10:54:26;5.50;99.90
18388;DHT22;9320;50.256;19.026;2022-11-23T10:56:57;5.60;99.90
18388;DHT22;9320;50.256;19.026;2022-11-23T10:59:34;5.70;99.90
18388;DHT22;9320;50.256;19.026;2022-11-23T11:02:19;5.80;99.90
18388;DHT22;9320;50.256;19.026;2022-11-23T11:04:49;5.90;99.90
18388;DHT22;9320;50.256;19.026;2022-11-23T11:07:26;5.80;99.40
18388;DHT22;9320;50.256;19.026;2022-11-23T11:09:57;5.40;99.90
18388;DHT22;9320;50.256;19.026;2022-11-23T11:12:28;5.40;99.90
18388;DHT22;9320;50.256;19.026;2022-11-23T11:15:02;5.50;99.90
18388;DHT22;9320;50.256;19.026;2022-11-23T11:17:37;5.40;99.90
18388;DHT22;9320;50.256;19.026;2022-11-23T11:20:28;5.60;99.90
18388;DHT22;9320;50.256;19.026;2022-11-23T11:22:58;5.60;99.90
18388;DHT22;9320;50.256;19.026;2022-11-23T11:25:31;5.50;99.90
18388;DHT22;9320;50.256;19.026;2022-11-23T11:28:01;5.80;99.90
18388;DHT22;9320;50.256;19.026;2022-11-23T11:30:37;6.00;99.10
18388;DHT22;9320;50.256;19.026;2022-11-23T11:33:11;6.10;99.00
18388;DHT22;9320;50.256;19.026;2022-11-23T11:35:45;6.40;98.50
18388;DHT22;9320;50.256;19.026;2022-11-23T11:38:17;6.00;98.70
18388;DHT22;9320;50.256;19.026;2022-11-23T11:40:49;6.00;99.50
18388;DHT22;9320;50.256;19.026;2022-11-23T11:43:20;6.30;98.30
18388;DHT22;9320;50.256;19.026;2022-11-23T11:46:08;6.30;98.40
18388;DHT22;9320;50.256;19.026;2022-11-23T11:49:01;6.10;98.70
18388;DHT22;9320;50.256;19.026;2022-11-23T11:51:34;6.20;99.10
18388;DHT22;9320;50.256;19.026;2022-11-23T11:54:09;5.80;99.00
18388;DHT22;9320;50.256;19.026;2022-11-23T11:56:43;5.60;99.50
18388;DHT22;9320;50.256;19.026;2022-11-23T11:59:15;5.70;99.90
18388;DHT22;9320;50.256;19.026;2022-11-23T12:01:54;5.90;98.90
18388;DHT22;9320;50.256;19.026;2022-11-23T12:04:29;6.10;98.70
18388;DHT22;9320;50.256;19.026;2022-11-23T12:07:03;5.90;98.80
18388;DHT22;9320;50.256;19.026;2022-11-23T12:09:37;6.00;98.70
18388;DHT22;9320;50.256;19.026;2022-11-23T12:12:13;6.00;98.30
18388;DHT22;9320;50.256;19.026;2022-11-23T12:14:43;5.80;98.30
18388;DHT22;9320;50.256;19.026;2022-11-23T12:17:32;5.40;99.30
18388;DHT22;9320;50.256;19.026;2022-11-23T12:20:07;5.50;99.40
18388;DHT22;9320;50.256;19.026;2022-11-23T12:22:48;5.50;99.50
18388;DHT22;9320;50.256;19.026;2022-11-23T12:25:23;5.50;99.70
18388;DHT22;9320;50.256;19.026;2022-11-23T12:28:12;5.50;99.70
18388;DHT22;9320;50.256;19.026;2022-11-23T12:30:48;5.50;99.80
18388;DHT22;9320;50.256;19.026;2022-11-23T12:36:35;5.70;99.60
18388;DHT22;9320;50.256;19.026;2022-11-23T12:39:17;5.50;99.80
18388;DHT22;9320;50.256;19.026;2022-11-23T12:41:53;5.60;99.80
18388;DHT22;9320;50.256;19.026;2022-11-23T12:44:43;5.70;99.30
18388;DHT22;9320;50.256;19.026;2022-11-23T12:47:25;5.20;99.90
18388;DHT22;9320;50.256;19.026;2022-11-23T12:50:03;5.30;99.90
18388;DHT22;9320;50.256;19.026;2022-11-23T12:52:42;5.40;99.90
18388;DHT22;9320;50.256;19.026;2022-11-23T12:55:19;5.40;99.90
18388;DHT22;9320;50.256;19.026;2022-11-23T12:57:54;5.10;99.90
18388;DHT22;9320;50.256;19.026;2022-11-23T13:00:27;5.20;99.90
18388;DHT22;9320;50.256;19.026;2022-11-23T13:03:23;5.30;99.90
18388;DHT22;9320;50.256;19.026;2022-11-23T13:09:18;4.90;99.90
18388;DHT22;9320;50.256;19.026;2022-11-23T13:12:06;4.70;99.90
18388;DHT22;9320;50.256;19.026;2022-11-23T13:14:44;5.10;99.90
18388;DHT22;9320;50.256;19.026;2022-11-23T13:17:26;5.20;99.90
18388;DHT22;9320;50.256;19.026;2022-11-23T13:20:18;5.30;99.90
18388;DHT22;9320;50.256;19.026;2022-11-23T13:22:48;5.30;99.90
18388;DHT22;9320;50.256;19.026;2022-11-23T13:25:22;5.10;99.90
18388;DHT22;9320;50.256;19.026;2022-11-23T13:27:58;5.00;99.90
18388;DHT22;9320;50.256;19.026;2022-11-23T13:30:29;5.10;99.90
18388;DHT22;9320;50.256;19.026;2022-11-23T13:33:27;5.20;99.90
18388;DHT22;9320;50.256;19.026;2022-11-23T13:36:03;5.10;99.90
18388;DHT22;9320;50.256;19.026;2022-11-23T13:38:40;4.80;99.90
18388;DHT22;9320;50.256;19.026;2022-11-23T13:44:25;4.80;99.90
18388;DHT22;9320;50.256;19.026;2022-11-23T13:47:02;4.90;99.90
18388;DHT22;9320;50.256;19.026;2022-11-23T13:49:36;4.90;99.90
18388;DHT22;9320;50.256;19.026;2022-11-23T13:52:27;4.60;99.90
18388;DHT22;9320;50.256;19.026;2022-11-23T13:55:03;4.60;99.90
18388;DHT22;9320;50.256;19.026;2022-11-23T13:57:36;4.70;99.90
18388;DHT22;9320;50.256;19.026;2022-11-23T14:03:48;4.70;99.90
18388;DHT22;9320;50.256;19.026;2022-11-23T14:06:28;4.60;99.90
18388;DHT22;9320;50.256;19.026;2022-11-23T14:09:03;4.80;99.90
18388;DHT22;9320;50.256;19.026;2022-11-23T14:11:38;4.70;99.90
18388;DHT22;9320;50.256;19.026;2022-11-23T14:14:15;4.50;99.90
18388;DHT22;9320;50.256;19.026;2022-11-23T14:17:19;4.80;99.90
18388;DHT22;9320;50.256;19.026;2022-11-23T14:20:07;4.60;99.90
18388;DHT22;9320;50.256;19.026;2022-11-23T14:22:51;4.40;99.90
18388;DHT22;9320;50.256;19.026;2022-11-23T14:25:35;4.30;99.90
18388;DHT22;9320;50.256;19.026;2022-11-23T14:28:21;4.30;99.90
18388;DHT22;9320;50.256;19.026;2022-11-23T14:31:01;4.50;99.90
18388;DHT22;9320;50.256;19.026;2022-11-23T14:33:39;4.50;99.90
18388;DHT22;9320;50.256;19.026;2022-11-23T14:36:21;4.30;99.90
18388;DHT22;9320;50.256;19.026;2022-11-23T14:42:10;4.10;99.90
18388;DHT22;9320;50.256;19.026;2022-11-23T14:44:39;4.00;99.90
18388;DHT22;9320;50.256;19.026;2022-11-23T14:47:09;4.20;99.90
18388;DHT22;9320;50.256;19.026;2022-11-23T14:49:48;4.40;99.90
18388;DHT22;9320;50.256;19.026;2022-11-23T14:52:18;4.50;99.90
18388;DHT22;9320;50.256;19.026;2022-11-23T14:54:50;4.60;99.90
18388;DHT22;9320;50.256;19.026;2022-11-23T14:57:20;4.30;99.90
18388;DHT22;9320;50.256;19.026;2022-11-23T14:59:52;4.10;99.90
18388;DHT22;9320;50.256;19.026;2022-11-23T15:02:24;4.10;99.90
18388;DHT22;9320;50.256;19.026;2022-11-23T15:05:00;4.20;99.90
18388;DHT22;9320;50.256;19.026;2022-11-23T15:07:43;4.10;99.90
18388;DHT22;9320;50.256;19.026;2022-11-23T15:10:25;4.40;99.90
18388;DHT22;9320;50.256;19.026;2022-11-23T15:12:54;4.30;99.90
18388;DHT22;9320;50.256;19.026;2022-11-23T15:15:25;4.30;99.90
18388;DHT22;9320;50.256;19.026;2022-11-23T15:17:54;4.40;99.90
18388;DHT22;9320;50.256;19.026;2022-11-23T15:20:25;4.30;99.90
18388;DHT22;9320;50.256;19.026;2022-11-23T15:22:55;4.40;99.90
18388;DHT22;9320;50.256;19.026;2022-11-23T15:25:25;4.50;99.90
18388;DHT22;9320;50.256;19.026;2022-11-23T15:27:53;4.50;99.90
18388;DHT22;9320;50.256;19.026;2022-11-23T15:30:28;4.40;99.90
18388;DHT22;9320;50.256;19.026;2022-11-23T15:32:58;4.20;99.90
18388;DHT22;9320;50.256;19.026;2022-11-23T15:35:30;3.80;99.90
18388;DHT22;9320;50.256;19.026;2022-11-23T15:38:00;3.90;99.90
18388;DHT22;9320;50.256;19.026;2022-11-23T15:40:32;4.10;99.90
18388;DHT22;9320;50.256;19.026;2022-11-23T15:43:02;4.30;99.90
18388;DHT22;9320;50.256;19.026;2022-11-23T15:45:35;4.00;99.90
18388;DHT22;9320;50.256;19.026;2022-11-23T15:48:06;3.80;99.90
18388;DHT22;9320;50.256;19.026;2022-11-23T15:50:45;4.10;99.90
18388;DHT22;9320;50.256;19.026;2022-11-23T15:53:13;4.10;99.90
18388;DHT22;9320;50.256;19.026;2022-11-23T15:55:43;4.20;99.90
18388;DHT22;9320;50.256;19.026;2022-11-23T15:58:14;4.30;99.90
18388;DHT22;9320;50.256;19.026;2022-11-23T16:00:47;4.20;99.90
18388;DHT22;9320;50.256;19.026;2022-11-23T16:03:24;4.10;99.90
18388;DHT22;9320;50.256;19.026;2022-11-23T16:06:08;4.10;99.90
18388;DHT22;9320;50.256;19.026;2022-11-23T16:08:41;3.90;99.90
18388;DHT22;9320;50.256;19.026;2022-11-23T16:11:30;3.50;99.90
18388;DHT22;9320;50.256;19.026;2022-11-23T16:14:12;3.70;99.90
18388;DHT22;9320;50.256;19.026;2022-11-23T16:16:41;4.00;99.90
18388;DHT22;9320;50.256;19.026;2022-11-23T16:19:27;4.20;99.90
18388;DHT22;9320;50.256;19.026;2022-11-23T16:21:58;4.00;99.90
18388;DHT22;9320;50.256;19.026;2022-11-23T16:24:30;4.20;99.90
18388;DHT22;9320;50.256;19.026;2022-11-23T16:27:10;4.00;99.90
18388;DHT22;9320;50.256;19.026;2022-11-23T16:29:39;4.00;99.90
18388;DHT22;9320;50.256;19.026;2022-11-23T16:32:21;3.80;99.90